Time;durP1;ratioP1;P1;durP2;ratioP2;P2;SDS_P1;SDS_P2;PMS_P1;PMS_P2;Temp;Humidity;BMP_temperature;BMP_pressure;BME280_temperature;BME280_humidity;BME280_pressure;Samples;Min_cycle;Max_cycle;Signal;HPM_P1;HPM_P2
2023/05/19 00:04:13;;;;;;;1.70;1.10;;;9.90;99.90;;;;;;10438714;28;20289;-76
2023/05/19 00:09:34;;;;;;;2.47;1.13;;;9.90;99.90;;;;;;10437000;28;20218;-76
2023/05/19 00:14:55;;;;;;;2.30;1.40;;;9.80;1.00;;;;;;10467410;28;20207;-75
2023/05/19 00:20:16;;;;;;;2.07;1.30;;;9.60;90.20;;;;;;10442618;28;20207;-76
2023/05/19 00:25:37;;;;;;;3.17;1.40;;;9.60;99.90;;;;;;10456627;28;20202;-76
2023/05/19 00:30:59;;;;;;;2.10;1.40;;;9.60;99.90;;;;;;10483526;28;20233;-76
2023/05/19 00:36:20;;;;;;;2.60;1.50;;;9.60;99.90;;;;;;10461565;28;20403;-76
2023/05/19 00:41:42;;;;;;;5.50;1.97;;;9.60;1.00;;;;;;10441915;28;20218;-76
2023/05/19 00:47:03;;;;;;;4.37;2.53;;;9.50;1.00;;;;;;10496056;28;20208;-75
2023/05/19 00:52:26;;;;;;;7.77;2.73;;;9.40;1.00;;;;;;10523365;28;20216;-75
2023/05/19 00:57:49;;;;;;;3.47;2.63;;;9.40;1.00;;;;;;10486900;28;20244;-75
2023/05/19 01:03:10;;;;;;;3.93;2.00;;;;;;;;;;10473326;28;20231;-76
2023/05/19 01:08:34;;;;;;;2.10;1.60;;;9.20;99.90;;;;;;10440048;28;20196;-76
2023/05/19 01:13:56;;;;;;;4.90;1.97;;;9.20;99.90;;;;;;10441354;28;20505;-75
2023/05/19 01:19:18;;;;;;;4.87;2.43;;;9.20;99.90;;;;;;10480685;28;20198;-76
2023/05/19 01:24:58;;;;;;;7.10;4.33;;;9.20;99.90;;;;;;10461771;28;20238;-76
2023/05/19 01:30:24;;;;;;;3.40;2.30;;;9.10;99.90;;;;;;10481066;28;20247;-76
2023/05/19 01:35:47;;;;;;;2.07;1.60;;;9.10;99.90;;;;;;10452399;28;20211;-77
2023/05/19 01:41:10;;;;;;;2.07;1.37;;;9.00;99.90;;;;;;10439329;28;20219;-76
2023/05/19 01:46:31;;;;;;;4.20;1.93;;;9.00;99.90;;;;;;10442601;28;20204;-76
2023/05/19 01:51:52;;;;;;;5.93;2.83;;;9.10;99.90;;;;;;10439136;28;20277;-76
2023/05/19 01:57:32;;;;;;;7.13;2.20;;;9.10;99.90;;;;;;10451671;28;20234;-76
2023/05/19 02:03:05;;;;;;;3.13;1.97;;;9.00;99.90;;;;;;10440215;28;20230;-76
2023/05/19 02:08:33;;;;;;;3.27;1.50;;;9.00;99.90;;;;;;10438530;28;20370;-77
2023/05/19 02:13:59;;;;;;;1.93;0.90;;;9.00;99.90;;;;;;10468255;28;20225;-76
2023/05/19 02:19:25;;;;;;;3.27;1.00;;;9.00;1.00;;;;;;10464307;28;20201;-77
2023/05/19 02:24:50;;;;;;;1.80;1.17;;;8.90;1.00;;;;;;10477821;28;20304;-76
2023/05/19 02:30:11;;;;;;;2.87;1.10;;;9.00;1.00;;;;;;10478133;28;20221;-76
2023/05/19 02:35:32;;;;;;;2.93;1.37;;;8.90;1.00;;;;;;10443016;28;20266;-76
2023/05/19 02:40:53;;;;;;;2.00;1.03;;;9.00;1.00;;;;;;10437224;28;20245;-75
2023/05/19 02:46:14;;;;;;;3.70;1.30;;;8.90;1.00;;;;;;10436584;28;20413;-76
2023/05/19 02:51:35;;;;;;;2.57;1.33;;;8.90;1.00;;;;;;10441084;28;20193;-75
2023/05/19 02:56:57;;;;;;;1.80;1.20;;;8.90;1.00;;;;;;10449879;28;20234;-77
2023/05/19 03:02:32;;;;;;;3.87;1.40;;;8.90;1.00;;;;;;10541914;27;20587;-76
2023/05/19 03:07:54;;;;;;;3.13;1.50;;;8.90;1.00;;;;;;10498782;28;20201;-76
2023/05/19 03:13:15;;;;;;;3.43;1.73;;;9.00;99.90;;;;;;10491467;28;20206;-75
2023/05/19 03:18:37;;;;;;;4.07;2.30;;;9.00;99.90;;;;;;10512512;28;20252;-76
2023/05/19 03:23:58;;;;;;;29.07;13.03;;;9.10;99.90;;;;;;10512527;28;20242;-75
2023/05/19 03:29:20;;;;;;;21.37;9.50;;;9.00;76.00;;;;;;10512236;28;20188;-75
2023/05/19 03:34:41;;;;;;;6.20;2.70;;;9.00;49.50;;;;;;10508308;28;20201;-75
2023/05/19 03:40:04;;;;;;;7.23;1.80;;;9.00;67.70;;;;;;10512488;28;20279;-75
2023/05/19 03:45:29;;;;;;;20.77;10.87;;;9.00;99.90;;;;;;10477745;28;20198;-74
2023/05/19 03:50:53;;;;;;;7.00;3.73;;;8.90;99.90;;;;;;10498345;28;20201;-75
2023/05/19 03:56:21;;;;;;;5.53;2.23;;;9.00;99.90;;;;;;10480579;28;20282;-76
2023/05/19 04:01:43;;;;;;;3.47;1.90;;;9.10;99.90;;;;;;10495939;28;20438;-75
2023/05/19 04:07:04;;;;;;;4.97;2.57;;;9.10;99.90;;;;;;10509207;28;20414;-76
2023/05/19 04:12:25;;;;;;;3.50;1.80;;;9.00;1.00;;;;;;10490804;28;20542;-75
2023/05/19 04:17:46;;;;;;;2.77;1.60;;;9.10;1.00;;;;;;10483470;28;20197;-75
2023/05/19 04:23:07;;;;;;;3.70;1.77;;;9.20;99.90;;;;;;10477388;28;20212;-75
2023/05/19 04:28:29;;;;;;;4.83;2.00;;;9.40;99.90;;;;;;10482018;28;20205;-76
2023/05/19 04:33:52;;;;;;;4.90;2.37;;;9.60;99.90;;;;;;10476076;28;20237;-75
2023/05/19 04:39:15;;;;;;;4.23;2.40;;;9.70;99.90;;;;;;10442327;28;20306;-75
2023/05/19 04:44:38;;;;;;;3.07;1.80;;;9.80;99.90;;;;;;10443785;28;20200;-75
2023/05/19 04:50:00;;;;;;;5.43;2.57;;;9.90;99.90;;;;;;10439992;28;20485;-75
2023/05/19 04:55:22;;;;;;;4.80;2.67;;;10.10;99.90;;;;;;10439166;28;20210;-76
2023/05/19 05:00:43;;;;;;;2.57;1.80;;;10.30;99.90;;;;;;10481992;28;20245;-75
2023/05/19 05:06:05;;;;;;;3.60;2.00;;;10.40;99.90;;;;;;10466520;28;20209;-74
2023/05/19 05:11:26;;;;;;;1.90;1.50;;;10.50;92.50;;;;;;10493938;28;20482;-75
2023/05/19 05:16:49;;;;;;;4.47;1.60;;;10.70;14.20;;;;;;10492428;28;20506;-75
2023/05/19 05:22:15;;;;;;;2.47;1.60;;;10.80;57.10;;;;;;10478669;28;20227;-74
2023/05/19 05:27:37;;;;;;;4.50;1.63;;;10.90;49.70;;;;;;10479834;28;20211;-75
2023/05/19 05:33:01;;;;;;;3.37;1.53;;;11.10;5.20;;;;;;10465255;28;20282;-75
2023/05/19 05:38:29;;;;;;;2.23;1.53;;;11.40;1.00;;;;;;10478819;28;20208;-77
2023/05/19 05:43:52;;;;;;;1.80;1.10;;;11.60;1.00;;;;;;10465341;28;20199;-76
2023/05/19 05:49:13;;;;;;;1.70;1.13;;;11.80;1.00;;;;;;10479629;28;20508;-74
2023/05/19 05:54:38;;;;;;;2.23;1.10;;;12.00;1.00;;;;;;10460377;28;20203;-75
2023/05/19 06:00:01;;;;;;;4.10;1.30;;;12.30;1.00;;;;;;10487707;28;20311;-75
2023/05/19 06:05:24;;;;;;;1.65;1.10;;;12.60;1.00;;;;;;10477857;28;20202;-76
2023/05/19 06:10:46;;;;;;;4.75;1.75;;;12.80;1.00;;;;;;10477735;28;20224;-75
2023/05/19 06:16:09;;;;;;;1.95;1.00;;;13.10;1.00;;;;;;10438774;28;20210;-75
2023/05/19 06:21:37;;;;;;;4.75;1.20;;;13.50;1.00;;;;;;10436256;28;20221;-76
2023/05/19 06:26:58;;;;;;;4.82;1.70;;;13.80;1.00;;;;;;10455085;28;20576;-75
2023/05/19 06:32:20;;;;;;;4.93;1.13;;;14.20;1.00;;;;;;10461623;28;20214;-75
2023/05/19 06:37:41;;;;;;;2.45;1.00;;;14.80;1.00;;;;;;10476976;28;20190;-75
2023/05/19 06:43:03;;;;;;;4.70;1.27;;;15.50;1.00;;;;;;10476102;28;20213;-76
2023/05/19 06:48:45;;;;;;;3.58;1.00;;;16.20;1.00;;;;;;10476350;28;20189;-75
2023/05/19 06:54:11;;;;;;;2.78;1.15;;;17.00;1.00;;;;;;10475545;28;20294;-74
2023/05/19 06:59:36;;;;;;;1.92;1.00;;;17.20;1.00;;;;;;10471064;28;20238;-76
2023/05/19 07:04:58;;;;;;;7.72;1.40;;;17.70;1.00;;;;;;10475193;28;20561;-75
2023/05/19 07:10:20;;;;;;;3.08;1.20;;;18.30;1.00;;;;;;10475229;28;20208;-75
2023/05/19 07:15:43;;;;;;;5.15;1.40;;;18.80;1.00;;;;;;10476138;28;20192;-75
2023/05/19 07:21:06;;;;;;;2.10;1.00;;;19.20;1.00;;;;;;10474740;28;20227;-75
2023/05/19 07:26:28;;;;;;;7.28;2.13;;;19.20;1.00;;;;;;10475377;28;20192;-77
2023/05/19 07:31:52;;;;;;;4.13;2.20;;;19.50;1.00;;;;;;10418743;28;20278;-75
2023/05/19 07:37:14;;;;;;;2.92;1.05;;;19.60;1.00;;;;;;10442242;28;20283;-77
2023/05/19 07:42:35;;;;;;;5.05;1.05;;;19.80;1.00;;;;;;10401271;28;20331;-75
2023/05/19 07:47:57;;;;;;;2.95;1.17;;;20.00;1.00;;;;;;10418122;28;20280;-78
2023/05/19 07:53:18;;;;;;;3.97;1.40;;;19.50;1.00;;;;;;10434852;28;20227;-78
2023/05/19 07:58:40;;;;;;;1.83;1.23;;;19.50;1.00;;;;;;10435821;28;20432;-80
2023/05/19 08:04:02;;;;;;;3.00;1.00;;;19.80;1.00;;;;;;10436242;28;20429;-77
2023/05/19 08:09:23;;;;;;;1.48;0.90;;;20.20;1.00;;;;;;10434932;28;20502;-76
2023/05/19 08:14:44;;;;;;;3.25;1.20;;;20.30;1.00;;;;;;10431462;28;20236;-79
2023/05/19 08:20:07;;;;;;;1.65;0.98;;;20.10;99.90;;;;;;10418865;28;20610;-78
2023/05/19 08:25:29;;;;;;;3.22;1.00;;;19.90;99.90;;;;;;10435952;28;20258;-79
2023/05/19 08:30:53;;;;;;;2.47;1.25;;;19.70;99.90;;;;;;10414362;28;20216;-77
2023/05/19 08:36:14;;;;;;;3.33;1.50;;;20.00;99.90;;;;;;10406201;28;20502;-78
2023/05/19 08:41:36;;;;;;;2.13;1.55;;;19.40;99.90;;;;;;10416604;28;20236;-76
2023/05/19 08:47:01;;;;;;;5.70;2.97;;;19.10;99.90;;;;;;10416113;28;20390;-77
2023/05/19 08:52:36;;;;;;;6.00;2.30;;;18.80;99.90;;;;;;10427674;28;20219;-76
2023/05/19 08:57:57;;;;;;;2.53;1.30;;;18.60;99.90;;;;;;10433409;28;20557;-76
2023/05/19 09:03:19;;;;;;;3.28;1.35;;;18.40;99.90;;;;;;10425783;28;20211;-75
2023/05/19 09:08:43;;;;;;;4.00;2.30;;;18.20;99.90;;;;;;10433213;28;20200;-78
2023/05/19 09:14:05;;;;;;;5.93;2.08;;;18.10;99.90;;;;;;10431724;28;20196;-80
2023/05/19 09:19:28;;;;;;;7.72;3.00;;;18.00;99.90;;;;;;10444734;28;20263;-79
2023/05/19 09:24:49;;;;;;;4.20;2.20;;;18.10;99.90;;;;;;10420053;28;20358;-76
2023/05/19 09:30:10;;;;;;;4.75;1.88;;;18.00;99.90;;;;;;10418050;28;20223;-75
2023/05/19 09:35:33;;;;;;;2.05;1.27;;;17.80;99.90;;;;;;10422324;28;20192;-76
2023/05/19 09:40:59;;;;;;;7.88;1.65;;;17.60;99.90;;;;;;10427019;28;20303;-74
2023/05/19 09:46:27;;;;;;;4.28;1.65;;;17.60;99.90;;;;;;10441742;28;20192;-80
2023/05/19 09:51:49;;;;;;;3.58;2.10;;;17.80;99.90;;;;;;10414105;28;20221;-76
2023/05/19 09:57:11;;;;;;;1.95;0.70;;;17.90;99.90;;;;;;10417151;28;20272;-78
2023/05/19 10:02:32;;;;;;;4.60;2.10;;;17.70;99.90;;;;;;10431762;28;20263;-76
2023/05/19 10:07:54;;;;;;;3.10;1.42;;;17.80;99.90;;;;;;10416737;28;20216;-79
2023/05/19 10:13:16;;;;;;;4.68;1.63;;;17.90;99.90;;;;;;10426218;28;20224;-80
2023/05/19 10:18:38;;;;;;;2.05;1.38;;;18.10;99.90;;;;;;10430351;28;20242;-78
2023/05/19 10:23:59;;;;;;;5.20;1.60;;;18.00;99.90;;;;;;10441821;28;20213;-76
2023/05/19 10:29:27;;;;;;;4.18;1.58;;;17.70;99.90;;;;;;10427355;28;20199;-76
2023/05/19 10:35:20;;;;;;;4.18;1.92;;;17.60;99.90;;;;;;10428471;28;20212;-75
2023/05/19 10:41:01;;;;;;;5.65;2.00;;;17.70;99.90;;;;;;10428198;28;20479;-75
2023/05/19 10:46:24;;;;;;;3.90;1.90;;;17.90;99.90;;;;;;10420934;28;20200;-76
2023/05/19 10:51:45;;;;;;;2.13;1.27;;;18.00;99.90;;;;;;10411340;28;20208;-76
2023/05/19 10:57:08;;;;;;;5.45;1.38;;;17.80;99.90;;;;;;10428053;28;20202;-76
2023/05/19 11:02:42;;;;;;;10.93;2.00;;;17.70;99.90;;;;;;10428290;28;20240;-76
2023/05/19 11:08:10;;;;;;;2.58;1.25;;;17.80;99.90;;;;;;10429602;28;20211;-75
2023/05/19 11:13:32;;;;;;;2.30;1.50;;;17.80;99.90;;;;;;10427010;28;20204;-79
2023/05/19 11:18:55;;;;;;;4.68;1.10;;;17.90;99.90;;;;;;10441505;28;20197;-77
2023/05/19 11:24:35;;;;;;;12.68;1.60;;;18.00;99.90;;;;;;10432961;28;20208;-75
2023/05/19 11:30:07;;;;;;;2.88;1.55;;;18.00;99.90;;;;;;10453642;28;20204;-74
2023/05/19 11:35:29;;;;;;;3.40;1.48;;;18.10;99.90;;;;;;10436011;28;20246;-77
2023/05/19 11:40:55;;;;;;;3.33;1.95;;;18.20;99.90;;;;;;10435348;28;20238;-75
2023/05/19 11:46:17;;;;;;;2.50;1.65;;;18.30;99.90;;;;;;10436465;28;20279;-75
2023/05/19 11:51:38;;;;;;;3.55;2.00;;;18.20;99.90;;;;;;10424323;28;20207;-76
2023/05/19 11:57:01;;;;;;;1.88;1.27;;;18.30;99.90;;;;;;10442176;28;20188;-77
2023/05/19 12:02:23;;;;;;;3.05;1.70;;;18.20;99.90;;;;;;10432840;28;20240;-76
2023/05/19 12:07:48;;;;;;;3.33;1.20;;;18.10;99.90;;;;;;10421428;28;20234;-77
2023/05/19 12:13:09;;;;;;;1.55;1.33;;;18.20;99.90;;;;;;10437533;28;20196;-78
2023/05/19 12:18:36;;;;;;;1.60;1.20;;;18.50;99.90;;;;;;10435354;28;20197;-77
2023/05/19 12:23:58;;;;;;;2.22;1.30;;;18.40;99.90;;;;;;10431935;28;20483;-85
2023/05/19 12:29:19;;;;;;;2.85;1.50;;;18.30;99.90;;;;;;10425309;28;20192;-77
2023/05/19 12:34:41;;;;;;;2.65;1.70;;;18.00;99.90;;;;;;10426573;28;20275;-77
2023/05/19 12:40:03;;;;;;;5.00;1.38;;;17.90;99.90;;;;;;10432277;28;20235;-77
2023/05/19 12:45:26;;;;;;;3.75;1.52;;;17.60;99.90;;;;;;10431324;28;20530;-76
2023/05/19 12:50:51;;;;;;;3.60;1.10;;;17.50;99.90;;;;;;10429957;28;20220;-77
2023/05/19 12:56:15;;;;;;;3.25;1.73;;;17.20;99.90;;;;;;10432053;28;20373;-80
2023/05/19 13:01:36;;;;;;;3.13;1.65;;;17.10;99.90;;;;;;10451987;28;20640;-75
2023/05/19 13:06:58;;;;;;;3.03;1.73;;;17.00;99.90;;;;;;10433505;28;20223;-79
2023/05/19 13:12:19;;;;;;;8.60;1.52;;;16.70;99.90;;;;;;10432693;28;20288;-77
2023/05/19 13:17:40;;;;;;;5.88;1.90;;;16.40;99.90;;;;;;10415986;28;20279;-76
2023/05/19 13:23:02;;;;;;;6.35;2.17;;;16.10;99.90;;;;;;10433026;28;20225;-76
2023/05/19 13:28:23;;;;;;;2.65;1.42;;;15.60;99.90;;;;;;10428772;28;20506;-76
2023/05/19 13:33:44;;;;;;;4.45;1.75;;;15.30;1.00;;;;;;10424735;28;20207;-76
2023/05/19 13:39:05;;;;;;;9.77;3.03;;;15.10;1.00;;;;;;10422390;28;20249;-77
2023/05/19 13:44:26;;;;;;;7.68;2.75;;;15.00;1.00;;;;;;10443305;28;20450;-76
2023/05/19 13:49:47;;;;;;;6.28;2.10;;;14.90;1.00;;;;;;10422737;28;20500;-77
2023/05/19 13:55:09;;;;;;;3.10;1.45;;;14.80;26.30;;;;;;10446946;28;20199;-73
2023/05/19 14:00:30;;;;;;;4.78;2.60;;;14.70;1.00;;;;;;10421984;28;20321;-76
2023/05/19 14:05:52;;;;;;;7.55;2.97;;;14.70;99.90;;;;;;10416153;28;20247;-78
2023/05/19 14:11:20;;;;;;;7.85;4.75;;;14.60;99.90;;;;;;10429399;28;20221;-80
2023/05/19 14:16:41;;;;;;;10.07;5.82;;;14.60;99.90;;;;;;10444425;28;20562;-77
2023/05/19 14:22:03;;;;;;;8.85;5.70;;;14.60;33.00;;;;;;10445190;28;20268;-79
2023/05/19 14:27:24;;;;;;;29.80;16.48;;;14.70;99.90;;;;;;10428756;28;20547;-75
2023/05/19 14:32:45;;;;;;;4.85;2.60;;;14.90;99.90;;;;;;10453948;28;20451;-80
2023/05/19 14:38:06;;;;;;;2.92;2.05;;;14.70;88.00;;;;;;10422419;28;20513;-80
2023/05/19 14:43:27;;;;;;;3.33;2.13;;;14.50;99.90;;;;;;10425336;28;20439;-77
2023/05/19 14:48:48;;;;;;;4.38;2.33;;;14.20;99.90;;;;;;10427853;28;20220;-76
2023/05/19 14:54:09;;;;;;;4.72;3.17;;;14.20;1.00;;;;;;10427392;28;20219;-76
2023/05/19 14:59:30;;;;;;;3.53;2.38;;;14.10;1.00;;;;;;10429318;28;20430;-78
2023/05/19 15:04:51;;;;;;;12.93;5.18;;;14.10;1.00;;;;;;10427086;28;20588;-77
2023/05/19 15:10:12;;;;;;;12.65;3.30;;;14.00;99.90;;;;;;10432750;28;20349;-76
2023/05/19 15:15:33;;;;;;;3.42;2.50;;;14.00;1.00;;;;;;10433917;28;20194;-76
2023/05/19 15:20:54;;;;;;;5.75;3.38;;;14.10;1.00;;;;;;10433518;28;20529;-76
2023/05/19 15:26:16;;;;;;;7.80;3.45;;;14.20;1.00;;;;;;10434813;28;20339;-75
2023/05/19 15:31:36;;;;;;;7.50;3.85;;;14.30;1.00;;;;;;10405745;28;20259;-76
2023/05/19 15:36:58;;;;;;;5.82;3.10;;;14.50;1.00;;;;;;10431295;28;20201;-76
2023/05/19 15:42:18;;;;;;;2.28;1.50;;;14.50;1.00;;;;;;10432392;28;20424;-76
2023/05/19 15:47:39;;;;;;;4.28;2.10;;;14.30;1.00;;;;;;10434930;28;20187;-76
2023/05/19 15:53:01;;;;;;;3.58;1.88;;;14.30;99.90;;;;;;10434204;28;20508;-76
2023/05/19 15:58:22;;;;;;;4.25;3.00;;;14.10;99.90;;;;;;10433879;28;20259;-75
2023/05/19 16:03:44;;;;;;;4.82;2.40;;;14.00;1.00;;;;;;10434152;28;20234;-76
2023/05/19 16:09:05;;;;;;;4.30;2.78;;;14.00;1.00;;;;;;10440529;28;20546;-76
2023/05/19 16:14:29;;;;;;;3.45;2.40;;;13.90;1.00;;;;;;10439264;28;20390;-76
2023/05/19 16:19:50;;;;;;;3.15;1.85;;;13.90;19.30;;;;;;10409251;28;20210;-76
2023/05/19 16:25:12;;;;;;;3.80;2.45;;;13.90;1.00;;;;;;10441262;28;20244;-75
2023/05/19 16:30:33;;;;;;;4.75;3.20;;;13.90;1.00;;;;;;10442268;28;20201;-76
2023/05/19 16:35:55;;;;;;;6.05;3.17;;;13.70;60.00;;;;;;10441661;28;20194;-76
2023/05/19 16:41:16;;;;;;;4.00;2.20;;;13.60;99.90;;;;;;10439303;28;20266;-76
2023/05/19 16:46:37;;;;;;;6.32;2.70;;;13.60;99.90;;;;;;10441222;28;20596;-76
2023/05/19 16:51:58;;;;;;;4.90;3.38;;;13.50;29.80;;;;;;10439819;28;20201;-76
2023/05/19 16:57:19;;;;;;;5.88;3.35;;;13.40;99.90;;;;;;10439324;28;20239;-76
2023/05/19 17:02:40;;;;;;;8.07;4.78;;;13.50;99.90;;;;;;10439673;28;20224;-76
2023/05/19 17:08:01;;;;;;;29.05;15.88;;;13.40;99.90;;;;;;10440442;28;20191;-76
2023/05/19 17:13:22;;;;;;;161.20;77.55;;;13.50;99.90;;;;;;10441824;28;20407;-76
2023/05/19 17:18:43;;;;;;;115.32;52.78;;;13.40;99.90;;;;;;10440209;28;20195;-76
2023/05/19 17:24:05;;;;;;;68.72;31.48;;;13.50;99.90;;;;;;10439350;28;20228;-76
2023/05/19 17:29:26;;;;;;;26.67;12.90;;;13.50;99.90;;;;;;10429099;28;20198;-76
2023/05/19 17:34:47;;;;;;;14.13;7.43;;;13.40;99.90;;;;;;10436827;28;20340;-76
2023/05/19 17:40:09;;;;;;;14.70;7.78;;;13.40;99.90;;;;;;10438370;28;20225;-76
2023/05/19 17:45:30;;;;;;;10.23;6.30;;;13.20;99.90;;;;;;10438759;28;20242;-76
2023/05/19 17:50:51;;;;;;;9.32;5.47;;;13.10;99.90;;;;;;10438535;28;20232;-76
2023/05/19 17:56:12;;;;;;;8.32;4.55;;;13.10;99.90;;;;;;10438939;28;20194;-77
2023/05/19 18:01:33;;;;;;;13.82;5.10;;;13.10;99.90;;;;;;10437836;28;20241;-76
2023/05/19 18:06:55;;;;;;;8.43;4.80;;;13.00;99.90;;;;;;10438404;28;20189;-76
2023/05/19 18:12:16;;;;;;;7.40;3.90;;;13.00;99.90;;;;;;10457164;28;20250;-76
2023/05/19 18:17:37;;;;;;;4.40;2.85;;;13.00;99.90;;;;;;10409837;28;20278;-76
2023/05/19 18:22:58;;;;;;;3.55;2.92;;;13.00;99.90;;;;;;10407641;28;20409;-76
2023/05/19 18:28:19;;;;;;;4.07;2.83;;;12.90;99.90;;;;;;10435676;28;20233;-76
2023/05/19 18:33:40;;;;;;;6.05;3.55;;;12.90;99.90;;;;;;10409819;28;20198;-75
2023/05/19 18:39:03;;;;;;;6.40;3.10;;;12.90;99.90;;;;;;10436629;28;20192;-76
2023/05/19 18:44:25;;;;;;;6.45;3.03;;;12.80;99.90;;;;;;10435673;28;20551;-76
2023/05/19 18:49:46;;;;;;;5.43;2.90;;;12.80;99.90;;;;;;10436500;28;20190;-75
2023/05/19 18:55:07;;;;;;;6.03;3.15;;;12.80;99.90;;;;;;10435274;28;20284;-76
2023/05/19 19:00:28;;;;;;;5.53;3.50;;;12.80;99.90;;;;;;10435025;28;20445;-76
2023/05/19 19:05:56;;;;;;;5.63;3.72;;;12.80;99.90;;;;;;10435700;28;20579;-76
2023/05/19 19:11:17;;;;;;;5.93;4.50;;;12.70;99.90;;;;;;10459598;28;20216;-76
2023/05/19 19:16:38;;;;;;;7.03;4.88;;;12.70;99.90;;;;;;10465781;28;20505;-76
2023/05/19 19:21:59;;;;;;;7.45;3.92;;;12.60;99.90;;;;;;10435890;28;20266;-76
2023/05/19 19:27:20;;;;;;;7.53;5.03;;;12.60;99.90;;;;;;10435153;28;20219;-76
2023/05/19 19:32:41;;;;;;;12.95;6.78;;;12.50;99.90;;;;;;10435922;28;20371;-76
2023/05/19 19:38:02;;;;;;;9.20;4.90;;;12.50;99.90;;;;;;10450234;28;20207;-75
2023/05/19 19:43:23;;;;;;;9.82;4.75;;;12.50;99.90;;;;;;10440564;28;20574;-76
2023/05/19 19:48:44;;;;;;;6.88;3.90;;;12.40;99.90;;;;;;10442731;28;20203;-76
2023/05/19 19:54:05;;;;;;;8.10;3.97;;;12.50;99.90;;;;;;10443304;28;20483;-76
2023/05/19 19:59:26;;;;;;;5.70;3.97;;;12.40;99.90;;;;;;10441364;28;20532;-76
2023/05/19 20:04:48;;;;;;;7.03;4.15;;;12.50;99.90;;;;;;10443024;28;20247;-76
2023/05/19 20:10:09;;;;;;;6.93;4.00;;;12.40;99.90;;;;;;10468919;28;20207;-76
2023/05/19 20:15:31;;;;;;;6.93;4.32;;;12.40;99.90;;;;;;10455088;28;20200;-76
2023/05/19 20:20:52;;;;;;;4.78;3.20;;;12.30;99.90;;;;;;10441363;28;20257;-76
2023/05/19 20:26:13;;;;;;;8.27;3.72;;;12.30;99.90;;;;;;10442222;28;20203;-76
2023/05/19 20:31:35;;;;;;;6.82;4.10;;;12.30;99.90;;;;;;10429637;28;20195;-76
2023/05/19 20:36:56;;;;;;;5.82;4.22;;;12.30;99.90;;;;;;10440864;28;20551;-76
2023/05/19 20:42:16;;;;;;;6.70;3.80;;;12.30;99.90;;;;;;10440126;28;20230;-76
2023/05/19 20:47:37;;;;;;;5.80;3.63;;;12.30;99.90;;;;;;10440636;28;20214;-76
2023/05/19 20:53:00;;;;;;;8.60;3.83;;;12.20;99.90;;;;;;10439807;28;20194;-76
2023/05/19 20:58:20;;;;;;;7.00;4.40;;;12.30;99.90;;;;;;10439305;28;20285;-76
2023/05/19 21:03:41;;;;;;;7.00;4.27;;;12.20;99.90;;;;;;10439795;28;20227;-76
2023/05/19 21:09:05;;;;;;;7.85;4.68;;;12.20;99.90;;;;;;10454553;28;20462;-76
2023/05/19 21:14:26;;;;;;;5.72;3.75;;;12.20;99.90;;;;;;10461511;28;20213;-76
2023/05/19 21:19:47;;;;;;;7.93;3.72;;;12.20;99.90;;;;;;10439098;28;20291;-76
2023/05/19 21:25:08;;;;;;;8.73;4.17;;;12.10;99.90;;;;;;10438208;28;20506;-75
2023/05/19 21:30:29;;;;;;;8.50;4.40;;;12.10;99.90;;;;;;10438361;28;20230;-76
2023/05/19 21:35:51;;;;;;;8.50;3.60;;;12.20;99.90;;;;;;10439307;28;20477;-76
2023/05/19 21:41:12;;;;;;;5.40;3.00;;;12.10;99.90;;;;;;10438128;28;20247;-76
2023/05/19 21:46:33;;;;;;;5.35;3.33;;;12.10;99.90;;;;;;10438928;28;20275;-76
2023/05/19 21:51:54;;;;;;;4.90;2.85;;;12.10;99.90;;;;;;10437813;28;20290;-76
2023/05/19 21:57:15;;;;;;;5.75;3.00;;;12.20;99.90;;;;;;10438519;28;20196;-76
2023/05/19 22:02:36;;;;;;;4.35;2.80;;;12.10;99.90;;;;;;10436274;28;20239;-76
2023/05/19 22:07:58;;;;;;;3.72;2.40;;;12.10;99.90;;;;;;10448582;28;20202;-76
2023/05/19 22:13:19;;;;;;;3.87;2.37;;;12.10;99.90;;;;;;10468741;28;20279;-75
2023/05/19 22:18:40;;;;;;;4.07;2.53;;;12.00;99.90;;;;;;10437744;28;20242;-76
2023/05/19 22:24:01;;;;;;;5.93;2.80;;;12.10;99.90;;;;;;10435281;28;20241;-76
2023/05/19 22:29:22;;;;;;;8.20;3.83;;;12.10;99.90;;;;;;10431749;28;20196;-75
2023/05/19 22:34:43;;;;;;;5.72;2.80;;;12.10;99.90;;;;;;10396506;28;20395;-76
2023/05/19 22:40:05;;;;;;;3.40;2.10;;;12.10;99.90;;;;;;10432138;28;20222;-76
2023/05/19 22:45:26;;;;;;;4.07;2.30;;;12.00;99.90;;;;;;10435904;28;20188;-76
2023/05/19 22:50:48;;;;;;;4.75;2.00;;;12.00;99.90;;;;;;10435283;28;20377;-75
2023/05/19 22:56:09;;;;;;;4.25;2.22;;;12.10;99.90;;;;;;10436991;28;20230;-76
2023/05/19 23:01:30;;;;;;;7.45;2.92;;;12.00;99.90;;;;;;10435458;28;20257;-76
2023/05/19 23:06:51;;;;;;;4.78;2.70;;;12.00;99.90;;;;;;10435641;28;20525;-76
2023/05/19 23:12:12;;;;;;;7.78;2.30;;;12.00;99.90;;;;;;10436404;28;20196;-75
2023/05/19 23:17:33;;;;;;;4.97;2.47;;;11.90;99.90;;;;;;10441420;28;20211;-76
2023/05/19 23:22:54;;;;;;;5.70;2.13;;;12.00;99.90;;;;;;10446378;28;20239;-76
2023/05/19 23:28:15;;;;;;;6.72;1.90;;;11.90;99.90;;;;;;10442712;28;20193;-76
2023/05/19 23:33:36;;;;;;;4.93;2.40;;;11.90;99.40;;;;;;10403314;28;20242;-75
2023/05/19 23:38:59;;;;;;;2.85;1.75;;;11.90;99.50;;;;;;10474834;28;20235;-76
2023/05/19 23:44:20;;;;;;;3.25;1.88;;;11.90;99.90;;;;;;10443492;28;20402;-76
2023/05/19 23:49:41;;;;;;;2.92;1.60;;;11.90;99.70;;;;;;10442704;28;20204;-75
2023/05/19 23:55:02;;;;;;;2.00;1.20;;;11.90;99.20;;;;;;10443816;28;20192;-76
